sensor_id;sensor_type;location;lat;lon;timestamp;temperature;humidity
35682;DHT22;21805;51.022;4.782;2024-01-06T10:23:29;7.30;99.90
35682;DHT22;21805;51.022;4.782;2024-01-06T10:26:18;7.40;99.90
35682;DHT22;21805;51.022;4.782;2024-01-06T10:29:02;7.50;99.90
35682;DHT22;21805;51.022;4.782;2024-01-06T10:31:32;7.60;99.90
35682;DHT22;21805;51.022;4.782;2024-01-06T10:34:02;7.50;99.90
35682;DHT22;21805;51.022;4.782;2024-01-06T11:05:56;7.20;99.90
35682;DHT22;21805;51.022;4.782;2024-01-06T11:09:24;7.20;99.90
35682;DHT22;21805;51.022;4.782;2024-01-06T11:12:04;7.20;99.90
35682;DHT22;21805;51.022;4.782;2024-01-06T11:14:37;7.20;99.90
35682;DHT22;21805;51.022;4.782;2024-01-06T11:22:27;7.40;99.90
35682;DHT22;21805;51.022;4.782;2024-01-06T11:25:21;7.40;99.90
35682;DHT22;21805;51.022;4.782;2024-01-06T11:27:57;7.40;99.90
35682;DHT22;21805;51.022;4.782;2024-01-06T11:30:26;7.20;99.90
35682;DHT22;21805;51.022;4.782;2024-01-06T11:32:58;7.30;99.90
35682;DHT22;21805;51.022;4.782;2024-01-06T11:35:38;7.30;99.90
35682;DHT22;21805;51.022;4.782;2024-01-06T11:38:12;7.30;99.90
35682;DHT22;21805;51.022;4.782;2024-01-06T11:46:07;7.40;99.90
35682;DHT22;21805;51.022;4.782;2024-01-06T11:51:35;7.40;99.90
35682;DHT22;21805;51.022;4.782;2024-01-06T11:59:44;7.50;99.90
35682;DHT22;21805;51.022;4.782;2024-01-06T12:02:47;7.60;99.90
35682;DHT22;21805;51.022;4.782;2024-01-06T12:05:18;7.60;99.90
35682;DHT22;21805;51.022;4.782;2024-01-06T12:07:58;7.50;99.90
35682;DHT22;21805;51.022;4.782;2024-01-06T12:10:27;7.60;99.90
35682;DHT22;21805;51.022;4.782;2024-01-06T12:13:08;7.40;99.90
35682;DHT22;21805;51.022;4.782;2024-01-06T12:19:08;7.30;99.90
35682;DHT22;21805;51.022;4.782;2024-01-06T12:27:06;7.20;99.90
35682;DHT22;21805;51.022;4.782;2024-01-06T12:29:56;7.10;99.90
35682;DHT22;21805;51.022;4.782;2024-01-06T12:32:43;7.10;99.90
35682;DHT22;21805;51.022;4.782;2024-01-06T12:36:00;7.10;99.90
35682;DHT22;21805;51.022;4.782;2024-01-06T12:42:28;7.20;99.90
35682;DHT22;21805;51.022;4.782;2024-01-06T12:45:05;7.10;99.90
35682;DHT22;21805;51.022;4.782;2024-01-06T12:51:07;7.00;99.90
35682;DHT22;21805;51.022;4.782;2024-01-06T12:54:03;7.10;99.90
35682;DHT22;21805;51.022;4.782;2024-01-06T12:56:38;7.10;99.90
35682;DHT22;21805;51.022;4.782;2024-01-06T12:59:25;7.00;99.90
35682;DHT22;21805;51.022;4.782;2024-01-06T13:02:05;6.90;99.90
35682;DHT22;21805;51.022;4.782;2024-01-06T13:04:43;6.90;99.90
35682;DHT22;21805;51.022;4.782;2024-01-06T13:07:27;7.00;99.90
35682;DHT22;21805;51.022;4.782;2024-01-06T13:13:03;7.00;99.90
35682;DHT22;21805;51.022;4.782;2024-01-06T13:15:59;7.10;99.90
35682;DHT22;21805;51.022;4.782;2024-01-06T13:18:47;7.00;99.90
35682;DHT22;21805;51.022;4.782;2024-01-06T13:30:47;6.90;99.90
35682;DHT22;21805;51.022;4.782;2024-01-06T13:33:21;6.90;99.90
35682;DHT22;21805;51.022;4.782;2024-01-06T13:35:54;6.90;99.90
35682;DHT22;21805;51.022;4.782;2024-01-06T13:38:58;6.90;99.90
35682;DHT22;21805;51.022;4.782;2024-01-06T13:41:35;7.00;99.90
35682;DHT22;21805;51.022;4.782;2024-01-06T13:44:23;7.00;99.90
35682;DHT22;21805;51.022;4.782;2024-01-06T13:46:53;6.90;99.90
35682;DHT22;21805;51.022;4.782;2024-01-06T13:49:30;6.80;99.90
35682;DHT22;21805;51.022;4.782;2024-01-06T14:00:57;6.90;99.90
35682;DHT22;21805;51.022;4.782;2024-01-06T14:04:03;6.80;99.90
35682;DHT22;21805;51.022;4.782;2024-01-06T14:09:43;6.70;99.90
35682;DHT22;21805;51.022;4.782;2024-01-06T14:12:26;6.80;99.90
35682;DHT22;21805;51.022;4.782;2024-01-06T14:15:13;6.80;99.90
35682;DHT22;21805;51.022;4.782;2024-01-06T14:18:03;6.90;99.90
35682;DHT22;21805;51.022;4.782;2024-01-06T14:20:51;6.90;99.90
35682;DHT22;21805;51.022;4.782;2024-01-06T14:23:42;6.90;99.90
35682;DHT22;21805;51.022;4.782;2024-01-06T14:31:23;6.80;99.90
35682;DHT22;21805;51.022;4.782;2024-01-06T14:33:56;6.80;99.90
35682;DHT22;21805;51.022;4.782;2024-01-06T14:36:26;6.80;99.90
35682;DHT22;21805;51.022;4.782;2024-01-06T14:38:59;6.90;99.90
35682;DHT22;21805;51.022;4.782;2024-01-06T14:41:30;6.90;99.90
35682;DHT22;21805;51.022;4.782;2024-01-06T14:44:02;6.80;99.90
35682;DHT22;21805;51.022;4.782;2024-01-06T14:46:34;6.80;99.90
35682;DHT22;21805;51.022;4.782;2024-01-06T14:49:09;6.80;99.90
35682;DHT22;21805;51.022;4.782;2024-01-06T14:51:49;6.80;99.90
35682;DHT22;21805;51.022;4.782;2024-01-06T14:54:55;6.70;99.90
35682;DHT22;21805;51.022;4.782;2024-01-06T14:57:43;6.80;99.90
35682;DHT22;21805;51.022;4.782;2024-01-06T15:00:25;6.90;99.90
35682;DHT22;21805;51.022;4.782;2024-01-06T15:03:29;6.90;99.90
35682;DHT22;21805;51.022;4.782;2024-01-06T15:06:52;6.90;99.90
35682;DHT22;21805;51.022;4.782;2024-01-06T15:10:04;7.00;99.90
35682;DHT22;21805;51.022;4.782;2024-01-06T15:16:09;7.10;99.90
35682;DHT22;21805;51.022;4.782;2024-01-06T15:18:56;7.10;99.90
35682;DHT22;21805;51.022;4.782;2024-01-06T15:21:31;6.90;99.90
35682;DHT22;21805;51.022;4.782;2024-01-06T15:24:05;7.00;99.90
35682;DHT22;21805;51.022;4.782;2024-01-06T15:26:31;6.90;99.90
35682;DHT22;21805;51.022;4.782;2024-01-06T15:29:17;6.90;99.90
35682;DHT22;21805;51.022;4.782;2024-01-06T15:32:53;6.80;99.90
35682;DHT22;21805;51.022;4.782;2024-01-06T15:41:42;6.80;99.90
35682;DHT22;21805;51.022;4.782;2024-01-06T15:45:05;6.80;99.90
